Flight Track Log - Related Links

Times and Time Zones

All times are in EDT time to prevent confusion due to time zone crossing. See the N777NC flight status page for this flight to view local times or setup timezone preferences in your user account.


Time Position Orientation Groundspeed Altitude Reporting Facility
EDT Latitude Longitude Course Direction KTS MPH feet Rate Location/Type
Wed 08:40:48 PM 38.0447 -85.7108 182° South 224 258 3,900  Level Indianapolis Center
Wed 08:41:50 PM 37.9806 -85.7308 194° South 229 264 6,400 2,371 Climbing Indianapolis Center
Wed 08:42:00 PM 37.9584 -86.0998 238° Southwest  Level FlightAware Approximate
Wed 08:42:52 PM 37.9081 -85.7497 192° South 253 291 8,800  Level Indianapolis Center
Wed 08:43:00 PM 37.9068 -86.1942 233° Southwest  Level FlightAware Approximate
Wed 08:43:54 PM 37.8328 -85.7689 191° South 268 308 9,700  Level Indianapolis Center
Wed 08:44:00 PM 37.8321 -86.2436 189° South  Level FlightAware Approximate
Wed 08:44:55 PM 37.7497 -85.7897 191° South 297 342 10,500  Level Indianapolis Center
Wed 08:45:00 PM 37.7392 -86.2653 191° South  Level FlightAware Approximate
Wed 08:45:57 PM 37.6553 -85.8119 191° South 336 387 12,700  Level Indianapolis Center
Wed 08:46:59 PM 37.5678 -85.8603 204° Southwest 344 396 14,400 2,226 Climbing Indianapolis Center
Wed 08:48:01 PM 37.4775 -85.9275 211° Southwest 347 399 17,300 2,098 Climbing Indianapolis Center
Wed 08:49:02 PM 37.3967 -85.9867 210° Southwest 335 386 18,700 1,951 Climbing Indianapolis Center
Wed 08:50:04 PM 37.3133 -86.0472 210° Southwest 340 391 21,300 1,935 Climbing Indianapolis Center
Wed 08:51:06 PM 37.2411 -86.1231 220° Southwest 341 392 22,700 1,317 Climbing Indianapolis Center
Wed 08:52:07 PM 37.1686 -86.2056 222° Southwest 347 399 24,000 1,073 Climbing Indianapolis Center
Wed 08:53:09 PM 37.0997 -86.2944 226° Southwest 351 404 24,900 1,036 Climbing Indianapolis Center
Wed 08:54:26 PM 36.9956 -86.3958 218° Southwest 362 417 26,400 876 Climbing Memphis Center
Wed 08:55:26 PM 36.8978 -86.4006 182° South 342 394 26,900 300 Climbing Memphis Center
Wed 08:56:26 PM 36.7869 -86.3828 173° South 339 390 27,000 50 Climbing Memphis Center
Wed 08:57:26 PM 36.6831 -86.3983 187° South 371 427 27,000  Level Memphis Center
Wed 08:58:26 PM 36.5819 -86.4292 194° South 377 434 27,000  Level Memphis Center
Wed 08:59:26 PM 36.4778 -86.4239 178° South 377 434 27,000  Level Memphis Center
Wed 09:00:26 PM 36.3711 -86.4161 177° South 383 441 27,000  Level Memphis Center
Wed 09:01:26 PM 36.2664 -86.4033 174° South 389 448 27,000  Level Memphis Center
Wed 09:02:26 PM 36.1744 -86.3922 174° South 381 438 27,000 -200 Level Memphis Center
Wed 09:03:26 PM 36.0719 -86.3792 174° South 375 432 26,600 -1,450 Descending Memphis Center
Wed 09:04:26 PM 35.9669 -86.3639 173° South 375 432 24,100 -1,300 Descending Memphis Center
Wed 09:05:26 PM 35.8664 -86.3456 172° South 370 426 24,000 -149 Descending Memphis Center
Wed 09:06:27 PM 35.7678 -86.3300 173° South 365 420 23,800 -500 Descending Memphis Center
Wed 09:07:26 PM 35.6681 -86.2711 154° Southeast 365 420 23,000 -403 Descending Memphis Center
Wed 09:08:26 PM 35.5900 -86.1856 138° Southeast 365 420 23,000  Level Memphis Center
Wed 09:09:30 PM 35.4964 -86.1075 146° Southeast 389 448 23,000  Level Atlanta Center
Wed 09:10:30 PM 35.4119 -86.0417 148° Southeast 384 442 23,000  Level Atlanta Center
Wed 09:11:30 PM 35.3172 -85.9758 150° Southeast 390 449 23,000 50 Level Atlanta Center
Wed 09:12:30 PM 35.2283 -85.9075 148° Southeast 371 427 23,100 50 Climbing Atlanta Center
Wed 09:13:30 PM 35.1606 -85.8500 145° Southeast 346 398 23,100  Level Atlanta Center
Wed 09:14:30 PM 35.0819 -85.7900 148° Southeast 341 392 23,100  Level Atlanta Center
Wed 09:15:30 PM 34.9972 -85.7300 150° Southeast 346 398 23,100  Level Atlanta Center
Wed 09:16:30 PM 34.9167 -85.6675 148° Southeast 346 398 23,100  Level Atlanta Center
Wed 09:17:30 PM 34.8403 -85.6078 147° Southeast 341 392 23,100 -1,050 Level Atlanta Center
Wed 09:18:30 PM 34.7639 -85.5508 149° Southeast 336 387 21,000 -2,200 Descending Atlanta Center
Wed 09:19:30 PM 34.6850 -85.4989 152° Southeast 330 380 18,700 -1,700 Descending Atlanta Center
Wed 09:20:30 PM 34.5978 -85.4722 166° South 325 374 17,600 -1,350 Descending Atlanta Center
Wed 09:21:30 PM 34.5147 -85.4481 167° South 319 367 16,000 -1,450 Descending Atlanta Center
Wed 09:22:30 PM 34.4442 -85.3964 149° Southeast 294 338 14,700 -1,250 Descending Atlanta Center
Wed 09:23:30 PM 34.3803 -85.3175 134° Southeast 294 338 13,500 -900 Descending Atlanta Center
Wed 09:24:30 PM 34.3142 -85.2586 144° Southeast 294 338 12,900 -250 Descending Atlanta Center
Wed 09:25:30 PM 34.2481 -85.1997 144° Southeast 299 344 13,000 50 Climbing Atlanta Center
Wed 09:26:30 PM 34.1817 -85.1336 141° Southeast 299 344 13,000  Level Atlanta Center
Wed 09:27:30 PM 34.1239 -85.0625 134° Southeast 305 351 13,000 -50 Level Atlanta Center
Wed 09:28:30 PM 34.0661 -84.9892 134° Southeast 299 344 12,900 -900 Descending Atlanta Center
Wed 09:29:30 PM 34.0017 -84.9433 149° Southeast 292 336 11,200 -1,500 Descending Atlanta Center
Wed 09:30:30 PM 33.9289 -84.9350 175° South 268 308 9,900 -1,200 Descending Atlanta Center
Wed 09:31:30 PM 33.8619 -84.9319 178° South 250 288 8,800 -950 Descending Atlanta Center
Wed 09:32:30 PM 33.8036 -84.9289 178° South 238 274 8,000 -750 Descending Atlanta Center
Wed 09:33:30 PM 33.7450 -84.9281 179° South 222 255 7,300 -307 Descending Atlanta Center
Wed 09:35:26 PM 33.6333 -84.9000 168° South 196 226 7,100 -102 Descending Atlanta TRACON
Wed 09:36:26 PM 33.6333 -84.8500 90° East 195 224 7,000 -400 Descending Atlanta TRACON
Wed 09:37:26 PM 33.6333 -84.7833 90° East 196 226 6,300 -950 Descending Atlanta TRACON
Wed 09:38:26 PM 33.6333 -84.7167 90° East 186 214 5,100 -1,200 Descending Atlanta TRACON

Login

Don't have an account? Register now (free) for customized features, flight alerts, and more!